Aeroporto :
LOGIN :

Iscrizione | Disclaimer

   EN    FR    IT 

 










Sommario :    VFR   VFR Marginale   IFR   IFR Intensivo   IFR Molto Intensivo
Visibilità : 
Base nubi : 
>= 8 km
>= 3000ft
5 / 8 km
1000 / 3000 ft
1500m / 5 km
500 / 1000 ft
800 / 1500m
200 / 500 ft
< 800m
< 200 ft
Simboli :   Temporali  Nebbia  Neve Forte  Precipitazioni Forti  Vento > 20 kt
SIGMETs :   Varie  Temporali  Ghiacco  Turbolenza  Onda orograficha  Ceneri Vulcaniche






- Altitudine del aeroporto : 158 ft
- Codice IATA : QAR


EHDL - Deelen Airbase

ULTIMO METAR :
  • 230125Z AUTO 22005KT 130V270 9999 FEW019 OVC022 19/16 Q1016 BLACKWHT

METARs OBSOLETI :
  • 230055Z AUTO 21005KT 160V260 9999 FEW022 OVC048 18/17 Q1016 BLACKBLU
  • 230025Z AUTO 21005KT 130V270 9999 FEW005 BKN031 OVC035 19/17 Q1016 BLACKBLU
  • 222355Z AUTO 20003KT 140V200 9999 BKN027 BKN032 OVC039 18/16 Q1016 BLACKBLU
  • 222325Z AUTO 24003KT 9999 FEW037 SCT043 BKN048 18/16 Q1017 BLACKBLU
  • 222255Z AUTO 17004KT 130V200 9999 FEW037 BKN073 18/16 Q1016 BLACKBLU
  • 222225Z AUTO 18003KT 130V200 9999 FEW039 SCT044 BKN073 19/16 Q1016 BLACKBLU
  • 222155Z AUTO 17004KT 120V190 9999 SCT041 BKN068 BKN076 19/16 Q1016 BLACKBLU
  • 222125Z AUTO 17003KT 120V190 9999 SCT042 BKN061 BKN066 19/16 Q1016 BLACKBLU

Previsioni scadute.



MetMap, La meteo Aeronautica in un colpo d'occhio ! - Copyright ORBIFLY Dicembre 2007 - Disclaimer

ORBIFLY MET'MAP TEAM :

Programmazione e sviluppo : Alexandra Zaïnal
Concezione : Baudouin d'Aumeries
Supporto tecnico e logistico : Manuel Goepfert
Aiuto : Marc-Olivier Méhu
Aiuto per la traduzione : Arnaldo La Scala




FONTI E CREDITI :

   NOAA